sensor_id;sensor_type;location;lat;lon;timestamp;P1;durP1;ratioP1;P2;durP2;ratioP2
27163;SDS011;14685;50.618;7.024;2023-05-07T00:00:02;3.38;;;2.20;;
27163;SDS011;14685;50.618;7.024;2023-05-07T00:02:36;2.08;;;1.60;;
27163;SDS011;14685;50.618;7.024;2023-05-07T00:05:04;4.25;;;1.98;;
27163;SDS011;14685;50.618;7.024;2023-05-07T00:07:31;4.32;;;1.80;;
27163;SDS011;14685;50.618;7.024;2023-05-07T00:09:58;2.78;;;1.90;;
27163;SDS011;14685;50.618;7.024;2023-05-07T00:12:25;3.15;;;1.85;;
27163;SDS011;14685;50.618;7.024;2023-05-07T00:14:52;2.97;;;1.90;;
27163;SDS011;14685;50.618;7.024;2023-05-07T00:17:19;1.90;;;1.80;;
27163;SDS011;14685;50.618;7.024;2023-05-07T00:19:46;3.47;;;2.00;;
27163;SDS011;14685;50.618;7.024;2023-05-07T00:22:14;3.63;;;1.77;;
27163;SDS011;14685;50.618;7.024;2023-05-07T00:24:41;2.20;;;1.92;;
27163;SDS011;14685;50.618;7.024;2023-05-07T00:27:08;1.60;;;1.45;;
27163;SDS011;14685;50.618;7.024;2023-05-07T00:29:34;2.55;;;1.60;;
27163;SDS011;14685;50.618;7.024;2023-05-07T00:32:03;4.15;;;1.63;;
27163;SDS011;14685;50.618;7.024;2023-05-07T00:34:30;2.38;;;1.98;;
27163;SDS011;14685;50.618;7.024;2023-05-07T00:36:57;2.40;;;2.20;;
27163;SDS011;14685;50.618;7.024;2023-05-07T00:39:24;4.18;;;2.08;;
27163;SDS011;14685;50.618;7.024;2023-05-07T00:41:51;5.63;;;2.13;;
27163;SDS011;14685;50.618;7.024;2023-05-07T00:44:18;3.60;;;2.20;;
27163;SDS011;14685;50.618;7.024;2023-05-07T00:46:45;2.70;;;2.20;;
27163;SDS011;14685;50.618;7.024;2023-05-07T00:49:15;3.22;;;2.20;;
27163;SDS011;14685;50.618;7.024;2023-05-07T00:51:42;2.05;;;1.92;;
27163;SDS011;14685;50.618;7.024;2023-05-07T00:54:10;3.13;;;2.25;;
27163;SDS011;14685;50.618;7.024;2023-05-07T00:56:37;5.30;;;2.10;;
27163;SDS011;14685;50.618;7.024;2023-05-07T00:59:05;4.65;;;2.40;;
27163;SDS011;14685;50.618;7.024;2023-05-07T01:01:32;2.67;;;2.40;;
27163;SDS011;14685;50.618;7.024;2023-05-07T01:03:59;5.05;;;2.58;;
27163;SDS011;14685;50.618;7.024;2023-05-07T01:06:27;4.03;;;2.70;;
27163;SDS011;14685;50.618;7.024;2023-05-07T01:08:56;2.95;;;2.65;;
27163;SDS011;14685;50.618;7.024;2023-05-07T01:11:23;5.10;;;2.88;;
27163;SDS011;14685;50.618;7.024;2023-05-07T01:13:51;2.90;;;2.55;;
27163;SDS011;14685;50.618;7.024;2023-05-07T01:16:19;3.10;;;2.80;;
27163;SDS011;14685;50.618;7.024;2023-05-07T01:18:46;3.55;;;3.13;;
27163;SDS011;14685;50.618;7.024;2023-05-07T01:21:15;5.82;;;2.95;;
27163;SDS011;14685;50.618;7.024;2023-05-07T01:23:44;3.30;;;3.00;;
27163;SDS011;14685;50.618;7.024;2023-05-07T01:26:12;3.10;;;2.70;;
27163;SDS011;14685;50.618;7.024;2023-05-07T01:28:39;4.70;;;2.70;;
27163;SDS011;14685;50.618;7.024;2023-05-07T01:31:06;3.47;;;2.55;;
27163;SDS011;14685;50.618;7.024;2023-05-07T01:33:34;2.83;;;2.55;;
27163;SDS011;14685;50.618;7.024;2023-05-07T01:36:03;4.22;;;2.40;;
27163;SDS011;14685;50.618;7.024;2023-05-07T01:38:33;3.28;;;2.58;;
27163;SDS011;14685;50.618;7.024;2023-05-07T01:41:00;3.58;;;2.13;;
27163;SDS011;14685;50.618;7.024;2023-05-07T01:43:29;2.95;;;2.17;;
27163;SDS011;14685;50.618;7.024;2023-05-07T01:45:57;6.75;;;2.38;;
27163;SDS011;14685;50.618;7.024;2023-05-07T01:48:25;2.63;;;2.10;;
27163;SDS011;14685;50.618;7.024;2023-05-07T01:50:52;3.20;;;2.10;;
27163;SDS011;14685;50.618;7.024;2023-05-07T01:53:19;2.65;;;2.03;;
27163;SDS011;14685;50.618;7.024;2023-05-07T01:55:46;3.25;;;2.00;;
27163;SDS011;14685;50.618;7.024;2023-05-07T01:58:13;2.58;;;1.80;;
27163;SDS011;14685;50.618;7.024;2023-05-07T02:04:12;5.80;;;2.03;;
27163;SDS011;14685;50.618;7.024;2023-05-07T02:06:39;3.53;;;1.95;;
27163;SDS011;14685;50.618;7.024;2023-05-07T02:09:06;5.25;;;2.10;;
27163;SDS011;14685;50.618;7.024;2023-05-07T02:11:38;2.42;;;1.95;;
27163;SDS011;14685;50.618;7.024;2023-05-07T02:14:04;1.90;;;1.80;;
27163;SDS011;14685;50.618;7.024;2023-05-07T02:16:31;5.35;;;2.00;;
27163;SDS011;14685;50.618;7.024;2023-05-07T02:18:58;2.35;;;1.80;;
27163;SDS011;14685;50.618;7.024;2023-05-07T02:21:25;2.35;;;2.13;;
27163;SDS011;14685;50.618;7.024;2023-05-07T02:23:55;2.17;;;1.98;;
27163;SDS011;14685;50.618;7.024;2023-05-07T02:26:22;2.80;;;2.00;;
27163;SDS011;14685;50.618;7.024;2023-05-07T02:28:49;2.35;;;2.08;;
27163;SDS011;14685;50.618;7.024;2023-05-07T02:31:17;3.10;;;2.20;;
27163;SDS011;14685;50.618;7.024;2023-05-07T02:33:44;4.05;;;2.05;;
27163;SDS011;14685;50.618;7.024;2023-05-07T02:36:12;1.92;;;1.83;;
27163;SDS011;14685;50.618;7.024;2023-05-07T02:38:39;3.05;;;2.50;;
27163;SDS011;14685;50.618;7.024;2023-05-07T02:41:06;2.83;;;2.05;;
27163;SDS011;14685;50.618;7.024;2023-05-07T02:43:33;6.47;;;2.40;;
27163;SDS011;14685;50.618;7.024;2023-05-07T02:46:00;2.78;;;1.85;;
27163;SDS011;14685;50.618;7.024;2023-05-07T02:48:31;2.58;;;1.75;;
27163;SDS011;14685;50.618;7.024;2023-05-07T02:50:58;5.03;;;1.90;;
27163;SDS011;14685;50.618;7.024;2023-05-07T02:53:26;3.00;;;2.00;;
27163;SDS011;14685;50.618;7.024;2023-05-07T02:55:53;3.00;;;2.08;;
27163;SDS011;14685;50.618;7.024;2023-05-07T02:58:20;2.88;;;1.77;;
27163;SDS011;14685;50.618;7.024;2023-05-07T03:00:47;4.82;;;1.77;;
27163;SDS011;14685;50.618;7.024;2023-05-07T03:03:14;1.73;;;1.52;;
27163;SDS011;14685;50.618;7.024;2023-05-07T03:05:41;2.00;;;1.80;;
27163;SDS011;14685;50.618;7.024;2023-05-07T03:08:09;1.90;;;1.73;;
27163;SDS011;14685;50.618;7.024;2023-05-07T03:10:36;2.33;;;1.95;;
27163;SDS011;14685;50.618;7.024;2023-05-07T03:13:03;3.67;;;2.08;;
27163;SDS011;14685;50.618;7.024;2023-05-07T03:15:30;3.47;;;1.90;;
27163;SDS011;14685;50.618;7.024;2023-05-07T03:17:57;5.38;;;2.20;;
27163;SDS011;14685;50.618;7.024;2023-05-07T03:20:24;4.15;;;1.90;;
27163;SDS011;14685;50.618;7.024;2023-05-07T03:22:51;3.38;;;1.95;;
27163;SDS011;14685;50.618;7.024;2023-05-07T03:25:18;3.97;;;2.40;;
27163;SDS011;14685;50.618;7.024;2023-05-07T03:27:45;2.38;;;1.85;;
27163;SDS011;14685;50.618;7.024;2023-05-07T03:30:12;3.92;;;2.40;;
27163;SDS011;14685;50.618;7.024;2023-05-07T03:32:39;3.47;;;1.92;;
27163;SDS011;14685;50.618;7.024;2023-05-07T03:35:06;4.20;;;2.05;;
27163;SDS011;14685;50.618;7.024;2023-05-07T03:37:33;3.13;;;2.20;;
27163;SDS011;14685;50.618;7.024;2023-05-07T03:40:00;6.18;;;1.92;;
27163;SDS011;14685;50.618;7.024;2023-05-07T03:42:28;2.10;;;1.90;;
27163;SDS011;14685;50.618;7.024;2023-05-07T03:44:55;5.20;;;1.92;;
27163;SDS011;14685;50.618;7.024;2023-05-07T03:47:22;6.63;;;2.20;;
27163;SDS011;14685;50.618;7.024;2023-05-07T03:49:49;4.80;;;1.70;;
27163;SDS011;14685;50.618;7.024;2023-05-07T03:52:19;3.00;;;1.83;;
27163;SDS011;14685;50.618;7.024;2023-05-07T03:54:50;4.35;;;1.88;;
27163;SDS011;14685;50.618;7.024;2023-05-07T03:57:17;2.58;;;1.70;;
27163;SDS011;14685;50.618;7.024;2023-05-07T03:59:44;3.78;;;1.73;;
27163;SDS011;14685;50.618;7.024;2023-05-07T04:02:10;2.08;;;1.88;;
27163;SDS011;14685;50.618;7.024;2023-05-07T04:04:37;2.28;;;2.08;;
27163;SDS011;14685;50.618;7.024;2023-05-07T04:07:04;2.55;;;1.80;;
27163;SDS011;14685;50.618;7.024;2023-05-07T04:09:31;2.03;;;1.90;;
27163;SDS011;14685;50.618;7.024;2023-05-07T04:11:58;1.90;;;1.80;;
27163;SDS011;14685;50.618;7.024;2023-05-07T04:14:25;2.17;;;1.90;;
27163;SDS011;14685;50.618;7.024;2023-05-07T04:16:52;5.50;;;2.08;;
27163;SDS011;14685;50.618;7.024;2023-05-07T04:19:19;3.15;;;2.05;;
27163;SDS011;14685;50.618;7.024;2023-05-07T04:21:46;2.83;;;2.10;;
27163;SDS011;14685;50.618;7.024;2023-05-07T04:24:13;6.07;;;1.73;;
27163;SDS011;14685;50.618;7.024;2023-05-07T04:26:40;4.28;;;2.17;;
27163;SDS011;14685;50.618;7.024;2023-05-07T04:29:07;3.33;;;2.05;;
27163;SDS011;14685;50.618;7.024;2023-05-07T04:31:34;3.72;;;2.00;;
27163;SDS011;14685;50.618;7.024;2023-05-07T04:34:01;2.70;;;2.33;;
27163;SDS011;14685;50.618;7.024;2023-05-07T04:36:28;4.95;;;1.80;;
27163;SDS011;14685;50.618;7.024;2023-05-07T04:38:55;4.68;;;1.92;;
27163;SDS011;14685;50.618;7.024;2023-05-07T04:41:22;2.88;;;2.13;;
27163;SDS011;14685;50.618;7.024;2023-05-07T04:43:49;5.05;;;1.83;;
27163;SDS011;14685;50.618;7.024;2023-05-07T04:46:16;2.95;;;1.85;;
27163;SDS011;14685;50.618;7.024;2023-05-07T04:48:43;4.00;;;2.17;;
27163;SDS011;14685;50.618;7.024;2023-05-07T04:51:10;2.13;;;1.92;;
27163;SDS011;14685;50.618;7.024;2023-05-07T04:53:37;4.65;;;1.90;;
27163;SDS011;14685;50.618;7.024;2023-05-07T04:56:04;2.25;;;2.05;;
27163;SDS011;14685;50.618;7.024;2023-05-07T04:58:31;4.22;;;1.75;;
27163;SDS011;14685;50.618;7.024;2023-05-07T05:00:58;4.13;;;1.90;;
27163;SDS011;14685;50.618;7.024;2023-05-07T05:03:26;4.13;;;2.00;;
27163;SDS011;14685;50.618;7.024;2023-05-07T05:05:54;1.80;;;1.70;;
27163;SDS011;14685;50.618;7.024;2023-05-07T05:08:21;3.15;;;2.10;;
27163;SDS011;14685;50.618;7.024;2023-05-07T05:10:48;1.70;;;1.60;;
27163;SDS011;14685;50.618;7.024;2023-05-07T05:13:16;2.28;;;1.70;;
27163;SDS011;14685;50.618;7.024;2023-05-07T05:15:43;2.10;;;1.90;;
27163;SDS011;14685;50.618;7.024;2023-05-07T05:18:10;3.65;;;2.10;;
27163;SDS011;14685;50.618;7.024;2023-05-07T05:20:37;6.53;;;2.08;;
27163;SDS011;14685;50.618;7.024;2023-05-07T05:23:04;5.30;;;2.08;;
27163;SDS011;14685;50.618;7.024;2023-05-07T05:25:32;2.50;;;2.30;;
27163;SDS011;14685;50.618;7.024;2023-05-07T05:27:59;1.98;;;1.73;;
27163;SDS011;14685;50.618;7.024;2023-05-07T05:30:25;3.53;;;2.00;;
27163;SDS011;14685;50.618;7.024;2023-05-07T05:32:52;2.63;;;1.98;;
27163;SDS011;14685;50.618;7.024;2023-05-07T05:35:19;2.55;;;2.22;;
27163;SDS011;14685;50.618;7.024;2023-05-07T05:37:46;3.40;;;2.15;;
27163;SDS011;14685;50.618;7.024;2023-05-07T05:40:14;2.95;;;1.92;;
27163;SDS011;14685;50.618;7.024;2023-05-07T05:42:41;2.72;;;2.08;;
27163;SDS011;14685;50.618;7.024;2023-05-07T05:45:08;3.00;;;2.28;;
27163;SDS011;14685;50.618;7.024;2023-05-07T05:47:37;2.95;;;2.10;;
27163;SDS011;14685;50.618;7.024;2023-05-07T05:50:04;4.88;;;2.00;;
27163;SDS011;14685;50.618;7.024;2023-05-07T05:52:32;2.72;;;2.08;;
27163;SDS011;14685;50.618;7.024;2023-05-07T05:54:59;3.92;;;2.33;;
27163;SDS011;14685;50.618;7.024;2023-05-07T05:59:56;3.53;;;2.15;;
27163;SDS011;14685;50.618;7.024;2023-05-07T06:02:23;2.80;;;2.00;;
27163;SDS011;14685;50.618;7.024;2023-05-07T06:04:50;2.97;;;2.22;;
27163;SDS011;14685;50.618;7.024;2023-05-07T06:07:16;3.63;;;2.40;;
27163;SDS011;14685;50.618;7.024;2023-05-07T06:09:43;2.58;;;2.20;;
27163;SDS011;14685;50.618;7.024;2023-05-07T06:12:11;5.50;;;2.55;;
27163;SDS011;14685;50.618;7.024;2023-05-07T06:14:38;2.67;;;2.42;;
27163;SDS011;14685;50.618;7.024;2023-05-07T06:17:05;3.55;;;2.60;;
27163;SDS011;14685;50.618;7.024;2023-05-07T06:19:33;4.18;;;2.47;;
27163;SDS011;14685;50.618;7.024;2023-05-07T06:22:00;4.32;;;2.50;;
27163;SDS011;14685;50.618;7.024;2023-05-07T06:24:28;2.97;;;2.30;;
27163;SDS011;14685;50.618;7.024;2023-05-07T06:26:55;3.22;;;2.53;;
27163;SDS011;14685;50.618;7.024;2023-05-07T06:29:22;5.05;;;2.67;;
27163;SDS011;14685;50.618;7.024;2023-05-07T06:31:49;3.17;;;2.40;;
27163;SDS011;14685;50.618;7.024;2023-05-07T06:34:16;3.65;;;2.33;;
27163;SDS011;14685;50.618;7.024;2023-05-07T06:36:43;5.80;;;2.47;;
27163;SDS011;14685;50.618;7.024;2023-05-07T06:39:10;2.67;;;2.15;;
27163;SDS011;14685;50.618;7.024;2023-05-07T06:41:37;3.38;;;2.33;;
27163;SDS011;14685;50.618;7.024;2023-05-07T06:44:05;6.45;;;2.33;;
27163;SDS011;14685;50.618;7.024;2023-05-07T06:46:31;4.30;;;2.53;;
27163;SDS011;14685;50.618;7.024;2023-05-07T06:48:58;4.40;;;2.55;;
27163;SDS011;14685;50.618;7.024;2023-05-07T06:51:25;2.58;;;2.30;;
27163;SDS011;14685;50.618;7.024;2023-05-07T06:53:53;2.72;;;2.50;;
27163;SDS011;14685;50.618;7.024;2023-05-07T06:56:20;2.88;;;2.40;;
27163;SDS011;14685;50.618;7.024;2023-05-07T06:58:47;5.30;;;2.63;;
27163;SDS011;14685;50.618;7.024;2023-05-07T07:01:14;3.08;;;2.78;;
27163;SDS011;14685;50.618;7.024;2023-05-07T07:03:41;2.63;;;2.42;;
27163;SDS011;14685;50.618;7.024;2023-05-07T07:06:08;4.60;;;3.28;;
27163;SDS011;14685;50.618;7.024;2023-05-07T07:08:35;4.45;;;3.13;;
27163;SDS011;14685;50.618;7.024;2023-05-07T07:11:05;5.70;;;3.15;;
27163;SDS011;14685;50.618;7.024;2023-05-07T07:13:32;4.30;;;3.13;;
27163;SDS011;14685;50.618;7.024;2023-05-07T07:15:59;3.58;;;3.10;;
27163;SDS011;14685;50.618;7.024;2023-05-07T07:18:27;3.70;;;3.28;;
27163;SDS011;14685;50.618;7.024;2023-05-07T07:20:54;3.53;;;3.22;;
27163;SDS011;14685;50.618;7.024;2023-05-07T07:23:21;3.33;;;3.00;;
27163;SDS011;14685;50.618;7.024;2023-05-07T07:25:48;4.60;;;3.20;;
27163;SDS011;14685;50.618;7.024;2023-05-07T07:28:15;4.30;;;2.80;;
27163;SDS011;14685;50.618;7.024;2023-05-07T07:30:41;3.05;;;2.70;;
27163;SDS011;14685;50.618;7.024;2023-05-07T07:33:08;8.43;;;3.10;;
27163;SDS011;14685;50.618;7.024;2023-05-07T07:35:35;3.25;;;2.78;;
27163;SDS011;14685;50.618;7.024;2023-05-07T07:38:02;3.92;;;2.60;;
27163;SDS011;14685;50.618;7.024;2023-05-07T07:40:29;3.85;;;2.70;;
27163;SDS011;14685;50.618;7.024;2023-05-07T07:42:56;3.65;;;2.60;;
27163;SDS011;14685;50.618;7.024;2023-05-07T07:45:23;6.65;;;2.63;;
27163;SDS011;14685;50.618;7.024;2023-05-07T07:47:50;4.22;;;2.25;;
27163;SDS011;14685;50.618;7.024;2023-05-07T07:50:17;3.13;;;2.47;;
27163;SDS011;14685;50.618;7.024;2023-05-07T07:53:04;6.20;;;2.47;;
27163;SDS011;14685;50.618;7.024;2023-05-07T07:55:31;5.80;;;2.65;;
27163;SDS011;14685;50.618;7.024;2023-05-07T07:57:58;3.40;;;2.20;;
27163;SDS011;14685;50.618;7.024;2023-05-07T08:00:25;3.45;;;2.60;;
27163;SDS011;14685;50.618;7.024;2023-05-07T08:02:52;4.60;;;2.40;;
27163;SDS011;14685;50.618;7.024;2023-05-07T08:05:20;2.53;;;2.30;;
27163;SDS011;14685;50.618;7.024;2023-05-07T08:07:47;3.72;;;2.30;;
27163;SDS011;14685;50.618;7.024;2023-05-07T08:10:18;2.90;;;2.17;;
27163;SDS011;14685;50.618;7.024;2023-05-07T08:12:49;2.90;;;2.45;;
27163;SDS011;14685;50.618;7.024;2023-05-07T08:15:16;3.08;;;2.20;;
27163;SDS011;14685;50.618;7.024;2023-05-07T08:17:43;3.63;;;2.08;;
27163;SDS011;14685;50.618;7.024;2023-05-07T08:20:10;5.65;;;1.63;;
27163;SDS011;14685;50.618;7.024;2023-05-07T08:22:38;4.20;;;2.00;;
27163;SDS011;14685;50.618;7.024;2023-05-07T08:25:05;4.97;;;2.33;;
27163;SDS011;14685;50.618;7.024;2023-05-07T08:27:32;4.55;;;2.38;;
27163;SDS011;14685;50.618;7.024;2023-05-07T08:29:58;2.60;;;2.40;;
27163;SDS011;14685;50.618;7.024;2023-05-07T08:32:26;4.57;;;2.28;;
27163;SDS011;14685;50.618;7.024;2023-05-07T08:34:53;2.80;;;2.30;;
27163;SDS011;14685;50.618;7.024;2023-05-07T08:37:21;3.60;;;2.40;;
27163;SDS011;14685;50.618;7.024;2023-05-07T08:39:47;3.15;;;2.33;;
27163;SDS011;14685;50.618;7.024;2023-05-07T08:42:15;4.45;;;2.55;;
27163;SDS011;14685;50.618;7.024;2023-05-07T08:44:44;2.78;;;2.33;;
27163;SDS011;14685;50.618;7.024;2023-05-07T08:47:13;2.58;;;2.03;;
27163;SDS011;14685;50.618;7.024;2023-05-07T08:49:40;3.00;;;2.50;;
27163;SDS011;14685;50.618;7.024;2023-05-07T08:52:07;4.65;;;2.53;;
27163;SDS011;14685;50.618;7.024;2023-05-07T08:54:36;3.63;;;2.20;;
27163;SDS011;14685;50.618;7.024;2023-05-07T08:57:04;3.40;;;2.30;;
27163;SDS011;14685;50.618;7.024;2023-05-07T08:59:31;4.13;;;2.67;;
27163;SDS011;14685;50.618;7.024;2023-05-07T09:01:58;3.53;;;2.70;;
27163;SDS011;14685;50.618;7.024;2023-05-07T09:04:25;4.22;;;2.50;;
27163;SDS011;14685;50.618;7.024;2023-05-07T09:06:53;3.15;;;2.58;;
27163;SDS011;14685;50.618;7.024;2023-05-07T09:09:21;3.33;;;2.67;;
27163;SDS011;14685;50.618;7.024;2023-05-07T09:11:48;2.80;;;2.28;;
27163;SDS011;14685;50.618;7.024;2023-05-07T09:14:22;2.50;;;2.30;;
27163;SDS011;14685;50.618;7.024;2023-05-07T09:16:51;4.38;;;2.53;;
27163;SDS011;14685;50.618;7.024;2023-05-07T09:19:26;4.07;;;2.55;;
27163;SDS011;14685;50.618;7.024;2023-05-07T09:22:03;6.97;;;2.50;;
27163;SDS011;14685;50.618;7.024;2023-05-07T09:24:31;4.63;;;2.55;;
27163;SDS011;14685;50.618;7.024;2023-05-07T09:27:01;7.95;;;2.50;;
27163;SDS011;14685;50.618;7.024;2023-05-07T09:29:29;3.72;;;2.78;;
27163;SDS011;14685;50.618;7.024;2023-05-07T09:32:02;5.35;;;2.40;;
27163;SDS011;14685;50.618;7.024;2023-05-07T09:34:31;2.90;;;2.60;;
27163;SDS011;14685;50.618;7.024;2023-05-07T09:37:00;4.28;;;2.50;;
27163;SDS011;14685;50.618;7.024;2023-05-07T09:39:44;2.42;;;2.22;;
27163;SDS011;14685;50.618;7.024;2023-05-07T09:42:12;3.33;;;1.83;;
27163;SDS011;14685;50.618;7.024;2023-05-07T09:44:42;3.95;;;2.40;;
27163;SDS011;14685;50.618;7.024;2023-05-07T09:47:10;3.33;;;2.33;;
27163;SDS011;14685;50.618;7.024;2023-05-07T09:49:40;3.05;;;2.28;;
27163;SDS011;14685;50.618;7.024;2023-05-07T09:52:13;4.72;;;2.35;;
27163;SDS011;14685;50.618;7.024;2023-05-07T09:54:40;3.25;;;2.25;;
27163;SDS011;14685;50.618;7.024;2023-05-07T09:57:12;3.65;;;2.28;;
27163;SDS011;14685;50.618;7.024;2023-05-07T09:59:40;2.90;;;2.17;;
27163;SDS011;14685;50.618;7.024;2023-05-07T10:02:09;4.90;;;2.47;;
27163;SDS011;14685;50.618;7.024;2023-05-07T10:04:40;2.35;;;2.15;;
27163;SDS011;14685;50.618;7.024;2023-05-07T10:07:06;6.10;;;2.08;;
27163;SDS011;14685;50.618;7.024;2023-05-07T10:09:34;3.67;;;2.40;;
27163;SDS011;14685;50.618;7.024;2023-05-07T10:12:05;4.20;;;2.30;;
27163;SDS011;14685;50.618;7.024;2023-05-07T10:14:33;3.97;;;2.50;;
27163;SDS011;14685;50.618;7.024;2023-05-07T10:17:02;2.35;;;2.05;;
27163;SDS011;14685;50.618;7.024;2023-05-07T10:19:30;2.75;;;2.25;;
27163;SDS011;14685;50.618;7.024;2023-05-07T10:22:01;6.03;;;2.20;;
27163;SDS011;14685;50.618;7.024;2023-05-07T10:24:32;2.45;;;1.85;;
27163;SDS011;14685;50.618;7.024;2023-05-07T10:27:09;4.75;;;1.85;;
27163;SDS011;14685;50.618;7.024;2023-05-07T10:35:26;3.30;;;1.95;;
27163;SDS011;14685;50.618;7.024;2023-05-07T10:37:58;5.05;;;1.90;;
27163;SDS011;14685;50.618;7.024;2023-05-07T10:40:25;2.53;;;1.80;;
27163;SDS011;14685;50.618;7.024;2023-05-07T10:42:55;2.03;;;1.70;;
27163;SDS011;14685;50.618;7.024;2023-05-07T10:45:24;2.10;;;1.60;;
27163;SDS011;14685;50.618;7.024;2023-05-07T10:51:30;1.85;;;1.63;;
27163;SDS011;14685;50.618;7.024;2023-05-07T10:56:37;4.32;;;1.73;;
27163;SDS011;14685;50.618;7.024;2023-05-07T11:01:50;2.28;;;1.50;;
27163;SDS011;14685;50.618;7.024;2023-05-07T11:04:23;4.07;;;2.00;;
27163;SDS011;14685;50.618;7.024;2023-05-07T11:15:06;2.13;;;1.77;;
27163;SDS011;14685;50.618;7.024;2023-05-07T11:17:34;3.83;;;1.70;;
27163;SDS011;14685;50.618;7.024;2023-05-07T11:20:19;2.92;;;1.70;;
27163;SDS011;14685;50.618;7.024;2023-05-07T11:22:47;2.28;;;1.85;;
27163;SDS011;14685;50.618;7.024;2023-05-07T11:25:17;2.58;;;1.85;;
27163;SDS011;14685;50.618;7.024;2023-05-07T11:27:47;1.45;;;1.35;;
27163;SDS011;14685;50.618;7.024;2023-05-07T11:30:17;3.63;;;1.80;;
27163;SDS011;14685;50.618;7.024;2023-05-07T11:32:47;2.45;;;2.03;;
27163;SDS011;14685;50.618;7.024;2023-05-07T11:35:15;1.55;;;1.45;;
27163;SDS011;14685;50.618;7.024;2023-05-07T11:37:42;3.20;;;1.50;;
27163;SDS011;14685;50.618;7.024;2023-05-07T11:40:11;2.00;;;1.42;;
27163;SDS011;14685;50.618;7.024;2023-05-07T11:42:42;2.97;;;1.20;;
27163;SDS011;14685;50.618;7.024;2023-05-07T11:45:09;2.83;;;1.50;;
27163;SDS011;14685;50.618;7.024;2023-05-07T11:47:37;2.05;;;1.30;;
27163;SDS011;14685;50.618;7.024;2023-05-07T11:50:05;2.90;;;1.27;;
27163;SDS011;14685;50.618;7.024;2023-05-07T11:52:34;1.95;;;1.60;;
27163;SDS011;14685;50.618;7.024;2023-05-07T11:55:02;2.97;;;1.40;;
27163;SDS011;14685;50.618;7.024;2023-05-07T11:57:33;2.17;;;1.60;;
27163;SDS011;14685;50.618;7.024;2023-05-07T12:00:00;6.68;;;1.77;;
27163;SDS011;14685;50.618;7.024;2023-05-07T12:02:30;4.05;;;1.60;;
27163;SDS011;14685;50.618;7.024;2023-05-07T12:04:57;2.67;;;1.50;;
27163;SDS011;14685;50.618;7.024;2023-05-07T12:07:27;4.50;;;1.77;;
27163;SDS011;14685;50.618;7.024;2023-05-07T12:09:54;1.70;;;1.60;;
27163;SDS011;14685;50.618;7.024;2023-05-07T12:12:20;2.05;;;1.60;;
27163;SDS011;14685;50.618;7.024;2023-05-07T12:14:47;2.90;;;1.73;;
27163;SDS011;14685;50.618;7.024;2023-05-07T12:17:14;3.78;;;1.70;;
27163;SDS011;14685;50.618;7.024;2023-05-07T12:19:44;2.08;;;1.75;;
27163;SDS011;14685;50.618;7.024;2023-05-07T12:22:13;1.67;;;1.50;;
27163;SDS011;14685;50.618;7.024;2023-05-07T12:24:49;1.60;;;1.50;;
27163;SDS011;14685;50.618;7.024;2023-05-07T12:27:27;2.90;;;1.83;;
27163;SDS011;14685;50.618;7.024;2023-05-07T12:29:54;2.22;;;1.50;;
27163;SDS011;14685;50.618;7.024;2023-05-07T12:32:23;2.25;;;1.30;;
27163;SDS011;14685;50.618;7.024;2023-05-07T12:34:50;1.35;;;1.20;;
27163;SDS011;14685;50.618;7.024;2023-05-07T12:37:22;3.05;;;1.63;;
27163;SDS011;14685;50.618;7.024;2023-05-07T12:40:04;2.70;;;1.25;;
27163;SDS011;14685;50.618;7.024;2023-05-07T12:42:35;1.30;;;1.20;;
27163;SDS011;14685;50.618;7.024;2023-05-07T12:45:12;2.08;;;1.42;;
27163;SDS011;14685;50.618;7.024;2023-05-07T12:47:46;2.00;;;1.42;;
27163;SDS011;14685;50.618;7.024;2023-05-07T12:50:14;1.77;;;1.50;;
27163;SDS011;14685;50.618;7.024;2023-05-07T12:52:42;1.60;;;1.20;;
27163;SDS011;14685;50.618;7.024;2023-05-07T12:55:12;4.25;;;1.35;;
27163;SDS011;14685;50.618;7.024;2023-05-07T12:57:41;1.98;;;1.30;;
27163;SDS011;14685;50.618;7.024;2023-05-07T13:00:09;1.52;;;1.20;;
27163;SDS011;14685;50.618;7.024;2023-05-07T13:02:37;1.50;;;1.40;;
27163;SDS011;14685;50.618;7.024;2023-05-07T13:05:07;2.47;;;1.60;;
27163;SDS011;14685;50.618;7.024;2023-05-07T13:07:35;2.92;;;1.80;;
27163;SDS011;14685;50.618;7.024;2023-05-07T13:10:03;2.22;;;2.03;;
27163;SDS011;14685;50.618;7.024;2023-05-07T13:12:30;1.67;;;1.58;;
27163;SDS011;14685;50.618;7.024;2023-05-07T13:14:57;1.98;;;1.77;;
27163;SDS011;14685;50.618;7.024;2023-05-07T13:17:26;4.28;;;2.00;;
27163;SDS011;14685;50.618;7.024;2023-05-07T13:19:53;2.80;;;2.13;;
27163;SDS011;14685;50.618;7.024;2023-05-07T13:22:20;3.10;;;2.00;;
27163;SDS011;14685;50.618;7.024;2023-05-07T13:24:47;2.72;;;1.60;;
27163;SDS011;14685;50.618;7.024;2023-05-07T13:27:13;3.17;;;2.05;;
27163;SDS011;14685;50.618;7.024;2023-05-07T13:29:40;3.63;;;2.28;;
27163;SDS011;14685;50.618;7.024;2023-05-07T13:32:07;2.67;;;1.70;;
27163;SDS011;14685;50.618;7.024;2023-05-07T13:34:34;5.00;;;2.47;;
27163;SDS011;14685;50.618;7.024;2023-05-07T13:37:02;4.07;;;2.45;;
27163;SDS011;14685;50.618;7.024;2023-05-07T13:39:36;2.75;;;2.53;;
27163;SDS011;14685;50.618;7.024;2023-05-07T13:42:03;5.00;;;2.80;;
27163;SDS011;14685;50.618;7.024;2023-05-07T13:44:30;2.50;;;2.30;;
27163;SDS011;14685;50.618;7.024;2023-05-07T13:46:58;6.15;;;3.03;;
27163;SDS011;14685;50.618;7.024;2023-05-07T13:49:27;9.38;;;3.58;;
27163;SDS011;14685;50.618;7.024;2023-05-07T13:51:54;18.40;;;8.68;;
27163;SDS011;14685;50.618;7.024;2023-05-07T13:54:21;8.77;;;4.43;;
27163;SDS011;14685;50.618;7.024;2023-05-07T13:56:50;8.38;;;4.00;;
27163;SDS011;14685;50.618;7.024;2023-05-07T13:59:18;7.22;;;3.00;;
27163;SDS011;14685;50.618;7.024;2023-05-07T14:01:47;5.20;;;2.47;;
27163;SDS011;14685;50.618;7.024;2023-05-07T14:04:14;5.55;;;2.97;;
27163;SDS011;14685;50.618;7.024;2023-05-07T14:06:43;4.57;;;2.38;;
27163;SDS011;14685;50.618;7.024;2023-05-07T14:09:11;2.67;;;2.05;;
27163;SDS011;14685;50.618;7.024;2023-05-07T14:11:40;5.30;;;3.00;;
27163;SDS011;14685;50.618;7.024;2023-05-07T14:14:08;7.90;;;2.80;;
27163;SDS011;14685;50.618;7.024;2023-05-07T14:16:38;9.57;;;3.05;;
27163;SDS011;14685;50.618;7.024;2023-05-07T14:19:07;5.75;;;2.25;;
27163;SDS011;14685;50.618;7.024;2023-05-07T14:21:34;5.93;;;2.40;;
27163;SDS011;14685;50.618;7.024;2023-05-07T14:24:01;4.00;;;2.00;;
27163;SDS011;14685;50.618;7.024;2023-05-07T14:26:28;4.57;;;2.20;;
27163;SDS011;14685;50.618;7.024;2023-05-07T14:28:55;4.10;;;2.03;;
27163;SDS011;14685;50.618;7.024;2023-05-07T14:31:26;3.90;;;2.05;;
27163;SDS011;14685;50.618;7.024;2023-05-07T14:33:53;5.32;;;2.10;;
27163;SDS011;14685;50.618;7.024;2023-05-07T14:36:20;2.72;;;1.63;;
27163;SDS011;14685;50.618;7.024;2023-05-07T14:38:49;1.73;;;1.60;;
27163;SDS011;14685;50.618;7.024;2023-05-07T14:41:17;7.13;;;2.00;;
27163;SDS011;14685;50.618;7.024;2023-05-07T14:43:44;2.80;;;1.60;;
27163;SDS011;14685;50.618;7.024;2023-05-07T14:46:17;4.30;;;1.75;;
27163;SDS011;14685;50.618;7.024;2023-05-07T14:48:44;3.47;;;1.55;;
27163;SDS011;14685;50.618;7.024;2023-05-07T14:51:14;2.10;;;1.70;;
27163;SDS011;14685;50.618;7.024;2023-05-07T14:53:44;2.10;;;1.70;;
27163;SDS011;14685;50.618;7.024;2023-05-07T14:56:11;2.65;;;1.80;;
27163;SDS011;14685;50.618;7.024;2023-05-07T14:58:39;2.05;;;1.63;;
27163;SDS011;14685;50.618;7.024;2023-05-07T15:01:06;6.20;;;2.03;;
27163;SDS011;14685;50.618;7.024;2023-05-07T15:03:33;4.88;;;2.25;;
27163;SDS011;14685;50.618;7.024;2023-05-07T15:06:01;4.90;;;2.40;;
27163;SDS011;14685;50.618;7.024;2023-05-07T15:08:29;5.10;;;2.50;;
27163;SDS011;14685;50.618;7.024;2023-05-07T15:10:56;4.63;;;2.67;;
27163;SDS011;14685;50.618;7.024;2023-05-07T15:13:23;3.95;;;2.50;;
27163;SDS011;14685;50.618;7.024;2023-05-07T15:15:53;7.47;;;2.63;;
27163;SDS011;14685;50.618;7.024;2023-05-07T15:18:19;7.47;;;3.50;;
27163;SDS011;14685;50.618;7.024;2023-05-07T15:20:48;3.47;;;2.55;;